Terminal Aerodrome Forecast
Issued by NWS Newport/Morehead City, NC

Home | Current Version | Previous Version | Graphics & Text | Print | Product List | Glossary On
Versions: 1 2 3 4 5 6 7 8 9 10 11 12 13 14 15 16
127
FTUS42 KMHX 171543 AAA
TAFEWN
TAF AMD
KEWN 171543Z 1716/1812 VRB04KT P6SM SCT007 BKN012
     FM171800 22007KT P6SM SCT015 BKN100
     FM180600 23009KT P6SM VCSH SCT030 BKN060 WS020/25040KT=

USA.gov is the U.S. government's official web portal to all federal, state and local government web resources and services.